Tijucas Do Sul, Brazil
Current Conditions -  °F | °C
As of 5:00 AM on Friday 31 Oct 2014 (Local Time) from SBCT Reporting Station
Broken Clouds Broken Clouds  
Wind Chill: 66°   Ceiling: 700
Heat Index: 66°   Visibility: 6mi
Dew Point: 63°   Wind: 3mph
Humidity: 88%   Direction: 60°ENE
Pressure: 29.97"   Gusts: NA
Location:  25.93°S, 49.18°W
Report Text: SBCT 310700Z 06003KT 9999 BKN007 19/17 Q1015
Loading
Personal Weather Stations






























Interactive Weather Map
Tropical Storm Tracking
New forecast layout! Learn more

10-Day Weather Forecast

Advertisements
Track Severe Weather on mobile